Ana Sayfa
METAR-TAF:

METAR-TAF

Havaalanları :

Munising, Michigan, Amerika Birleşik Devletleri

Enlem: 46-24N, Boylam: 086-39W, yükseklik: 187 m

Güncel hava durumu gözlemi

Rapor saat 10:56 UTC de 23 dakika önce yapıldı.
Rüzgar kuzeydoğudan 6 kt
Sıcaklık 6°C
Nem 75%
Basınç 1020 hPa

METAR: KP53 271056Z AUTO 05006KT 06/02 A3013 RMK AO1 SLP209 T00610022

Saat: 07:19 (11:19 UTC)


TAF: eksik

4.000'den fazla havaalanı için hava durumu gözlemleri ve tahminleri (METAR ve TAF raporları).

Kullanılabilir istasyonlar harita üzerinde sarı ve kırmızı noktalarla gösterilir.

İstasyonun adını görmek için fareyi noktanın üzerinde gezdirin.

Sonrasında hava gözlem ve tahminlerini görmek için tıklayın.

Haritayı değiştirmek için: yaklaştırmak için siyah artı işaretli yeşil düğmeye ve uzaklaştırmak için de eksi işaretli düğmeye hızla tıklayın; bitişik haritalar için yeşil okları kullanın.


METAR-TAF: